sensor_id;sensor_type;location;lat;lon;timestamp;P1;P2;P0
74419;PMS5003;62855;50.718;-2.460;2023-02-15T00:00:06;80.78;83.11;
74419;PMS5003;62855;50.718;-2.460;2023-02-15T00:01:06;86.22;92.89;
74419;PMS5003;62855;50.718;-2.460;2023-02-15T00:04:06;105.28;108.54;
74419;PMS5003;62855;50.718;-2.460;2023-02-15T00:07:06;100.74;104.63;
74419;PMS5003;62855;50.718;-2.460;2023-02-15T00:10:06;102.56;106.58;
74419;PMS5003;62855;50.718;-2.460;2023-02-15T00:13:06;98.93;100.72;
74419;PMS5003;62855;50.718;-2.460;2023-02-15T00:16:06;85.31;87.03;
74419;PMS5003;62855;50.718;-2.460;2023-02-15T00:19:06;86.22;88.00;
74419;PMS5003;62855;50.718;-2.460;2023-02-15T00:20:06;89.85;89.96;
74419;PMS5003;62855;50.718;-2.460;2023-02-15T00:23:05;80.78;79.20;
74419;PMS5003;62855;50.718;-2.460;2023-02-15T00:26:07;85.31;85.07;
74419;PMS5003;62855;50.718;-2.460;2023-02-15T00:29:06;91.67;91.91;
74419;PMS5003;62855;50.718;-2.460;2023-02-15T00:31:06;56.27;60.62;
74419;PMS5003;62855;50.718;-2.460;2023-02-15T00:34:07;72.61;74.31;
74419;PMS5003;62855;50.718;-2.460;2023-02-15T00:37:06;75.33;76.27;
74419;PMS5003;62855;50.718;-2.460;2023-02-15T00:40:06;83.50;83.11;
74419;PMS5003;62855;50.718;-2.460;2023-02-15T00:43:06;83.50;80.18;
74419;PMS5003;62855;50.718;-2.460;2023-02-15T00:46:05;73.52;69.42;
74419;PMS5003;62855;50.718;-2.460;2023-02-15T00:49:06;74.42;70.40;
74419;PMS5003;62855;50.718;-2.460;2023-02-15T00:50:06;64.44;69.42;
74419;PMS5003;62855;50.718;-2.460;2023-02-15T00:53:06;74.42;77.25;
74419;PMS5003;62855;50.718;-2.460;2023-02-15T00:54:06;57.18;61.60;
74419;PMS5003;62855;50.718;-2.460;2023-02-15T00:57:05;71.70;75.29;
74419;PMS5003;62855;50.718;-2.460;2023-02-15T01:00:06;77.15;79.20;
74419;PMS5003;62855;50.718;-2.460;2023-02-15T01:03:06;85.31;84.09;
74419;PMS5003;62855;50.718;-2.460;2023-02-15T01:06:06;85.31;84.09;
74419;PMS5003;62855;50.718;-2.460;2023-02-15T01:09:06;78.96;76.27;
74419;PMS5003;62855;50.718;-2.460;2023-02-15T01:10:06;53.55;57.69;
74419;PMS5003;62855;50.718;-2.460;2023-02-15T01:11:07;73.52;79.20;
74419;PMS5003;62855;50.718;-2.460;2023-02-15T01:14:06;73.52;78.23;
74419;PMS5003;62855;50.718;-2.460;2023-02-15T01:17:05;76.24;80.18;
74419;PMS5003;62855;50.718;-2.460;2023-02-15T01:20:06;88.04;88.98;
74419;PMS5003;62855;50.718;-2.460;2023-02-15T01:23:06;87.13;86.05;
74419;PMS5003;62855;50.718;-2.460;2023-02-15T01:26:06;78.05;76.27;
74419;PMS5003;62855;50.718;-2.460;2023-02-15T01:29:05;75.33;74.31;
74419;PMS5003;62855;50.718;-2.460;2023-02-15T01:32:06;68.98;70.40;
74419;PMS5003;62855;50.718;-2.460;2023-02-15T01:33:06;59.90;64.54;
74419;PMS5003;62855;50.718;-2.460;2023-02-15T01:36:06;78.96;80.18;
74419;PMS5003;62855;50.718;-2.460;2023-02-15T01:37:06;60.81;65.51;
74419;PMS5003;62855;50.718;-2.460;2023-02-15T01:38:06;81.68;88.00;
74419;PMS5003;62855;50.718;-2.460;2023-02-15T01:39:06;98.02;88.98;
74419;PMS5003;62855;50.718;-2.460;2023-02-15T01:42:07;91.67;88.00;
74419;PMS5003;62855;50.718;-2.460;2023-02-15T01:45:13;90.76;87.03;
74419;PMS5003;62855;50.718;-2.460;2023-02-15T01:48:08;95.30;93.87;
74419;PMS5003;62855;50.718;-2.460;2023-02-15T01:51:06;86.22;86.05;
74419;PMS5003;62855;50.718;-2.460;2023-02-15T01:54:07;75.33;75.29;
74419;PMS5003;62855;50.718;-2.460;2023-02-15T01:57:08;77.15;74.31;
74419;PMS5003;62855;50.718;-2.460;2023-02-15T02:00:06;80.78;78.23;
74419;PMS5003;62855;50.718;-2.460;2023-02-15T02:03:06;77.15;78.23;
74419;PMS5003;62855;50.718;-2.460;2023-02-15T02:04:08;64.44;69.42;
74419;PMS5003;62855;50.718;-2.460;2023-02-15T02:07:06;78.05;83.11;
74419;PMS5003;62855;50.718;-2.460;2023-02-15T02:10:08;79.87;83.11;
74419;PMS5003;62855;50.718;-2.460;2023-02-15T02:13:06;88.95;89.96;
74419;PMS5003;62855;50.718;-2.460;2023-02-15T02:16:08;87.13;89.96;
74419;PMS5003;62855;50.718;-2.460;2023-02-15T02:19:14;87.13;89.96;
74419;PMS5003;62855;50.718;-2.460;2023-02-15T02:22:08;90.76;96.80;
74419;PMS5003;62855;50.718;-2.460;2023-02-15T02:25:10;92.58;98.76;
74419;PMS5003;62855;50.718;-2.460;2023-02-15T02:28:09;93.48;97.78;
74419;PMS5003;62855;50.718;-2.460;2023-02-15T02:29:13;71.70;71.38;
74419;PMS5003;62855;50.718;-2.460;2023-02-15T02:32:17;81.68;85.07;
74419;PMS5003;62855;50.718;-2.460;2023-02-15T02:35:07;86.22;88.98;
74419;PMS5003;62855;50.718;-2.460;2023-02-15T02:38:07;93.48;93.87;
74419;PMS5003;62855;50.718;-2.460;2023-02-15T02:41:07;88.95;87.03;
74419;PMS5003;62855;50.718;-2.460;2023-02-15T02:44:07;81.68;78.23;
74419;PMS5003;62855;50.718;-2.460;2023-02-15T02:47:07;85.31;80.18;
74419;PMS5003;62855;50.718;-2.460;2023-02-15T02:50:06;84.41;81.16;
74419;PMS5003;62855;50.718;-2.460;2023-02-15T02:53:06;82.59;80.18;
74419;PMS5003;62855;50.718;-2.460;2023-02-15T02:56:07;87.13;84.09;
74419;PMS5003;62855;50.718;-2.460;2023-02-15T02:59:07;88.04;85.07;
74419;PMS5003;62855;50.718;-2.460;2023-02-15T03:02:07;90.76;85.07;
74419;PMS5003;62855;50.718;-2.460;2023-02-15T03:05:07;92.58;88.98;
74419;PMS5003;62855;50.718;-2.460;2023-02-15T03:08:06;98.02;93.87;
74419;PMS5003;62855;50.718;-2.460;2023-02-15T03:11:06;98.02;96.80;
74419;PMS5003;62855;50.718;-2.460;2023-02-15T03:14:05;98.93;98.76;
74419;PMS5003;62855;50.718;-2.460;2023-02-15T03:17:05;98.02;97.78;
74419;PMS5003;62855;50.718;-2.460;2023-02-15T03:20:07;92.58;91.91;
74419;PMS5003;62855;50.718;-2.460;2023-02-15T03:23:06;88.95;88.00;
74419;PMS5003;62855;50.718;-2.460;2023-02-15T03:26:05;92.58;90.94;
74419;PMS5003;62855;50.718;-2.460;2023-02-15T03:29:05;101.65;97.78;
74419;PMS5003;62855;50.718;-2.460;2023-02-15T03:32:07;106.19;101.69;
74419;PMS5003;62855;50.718;-2.460;2023-02-15T03:35:06;108.91;105.60;
74419;PMS5003;62855;50.718;-2.460;2023-02-15T03:38:06;111.64;107.56;
74419;PMS5003;62855;50.718;-2.460;2023-02-15T03:41:05;104.37;100.72;
74419;PMS5003;62855;50.718;-2.460;2023-02-15T03:44:06;96.21;95.83;
74419;PMS5003;62855;50.718;-2.460;2023-02-15T03:47:07;91.67;90.94;
74419;PMS5003;62855;50.718;-2.460;2023-02-15T03:50:07;96.21;93.87;
74419;PMS5003;62855;50.718;-2.460;2023-02-15T03:53:07;111.64;102.67;
74419;PMS5003;62855;50.718;-2.460;2023-02-15T03:56:06;116.17;106.58;
74419;PMS5003;62855;50.718;-2.460;2023-02-15T03:59:06;117.08;108.54;
74419;PMS5003;62855;50.718;-2.460;2023-02-15T04:00:09;63.53;68.45;
74419;PMS5003;62855;50.718;-2.460;2023-02-15T04:03:09;80.78;80.18;
74419;PMS5003;62855;50.718;-2.460;2023-02-15T04:06:06;89.85;85.07;
74419;PMS5003;62855;50.718;-2.460;2023-02-15T04:09:05;103.47;96.80;
74419;PMS5003;62855;50.718;-2.460;2023-02-15T04:12:06;102.56;95.83;
74419;PMS5003;62855;50.718;-2.460;2023-02-15T04:15:05;88.95;86.05;
74419;PMS5003;62855;50.718;-2.460;2023-02-15T04:18:06;87.13;86.05;
74419;PMS5003;62855;50.718;-2.460;2023-02-15T04:21:05;79.87;82.14;
74419;PMS5003;62855;50.718;-2.460;2023-02-15T04:24:06;88.04;84.09;
74419;PMS5003;62855;50.718;-2.460;2023-02-15T04:27:05;94.39;90.94;
74419;PMS5003;62855;50.718;-2.460;2023-02-15T04:30:07;104.37;101.69;
74419;PMS5003;62855;50.718;-2.460;2023-02-15T04:33:06;114.36;110.49;
74419;PMS5003;62855;50.718;-2.460;2023-02-15T04:36:05;115.27;111.47;
74419;PMS5003;62855;50.718;-2.460;2023-02-15T04:39:06;117.08;112.45;
74419;PMS5003;62855;50.718;-2.460;2023-02-15T04:40:07;111.64;114.40;
74419;PMS5003;62855;50.718;-2.460;2023-02-15T04:43:06;94.39;97.78;
74419;PMS5003;62855;50.718;-2.460;2023-02-15T04:44:07;73.52;79.20;
74419;PMS5003;62855;50.718;-2.460;2023-02-15T04:47:05;87.13;86.05;
74419;PMS5003;62855;50.718;-2.460;2023-02-15T04:50:06;84.41;85.07;
74419;PMS5003;62855;50.718;-2.460;2023-02-15T04:53:05;96.21;94.85;
74419;PMS5003;62855;50.718;-2.460;2023-02-15T04:56:06;97.11;95.83;
74419;PMS5003;62855;50.718;-2.460;2023-02-15T04:57:06;72.61;78.23;
74419;PMS5003;62855;50.718;-2.460;2023-02-15T04:58:06;79.87;80.18;
74419;PMS5003;62855;50.718;-2.460;2023-02-15T04:59:06;80.78;87.03;
74419;PMS5003;62855;50.718;-2.460;2023-02-15T05:02:06;73.52;79.20;
74419;PMS5003;62855;50.718;-2.460;2023-02-15T05:05:06;78.96;83.11;
74419;PMS5003;62855;50.718;-2.460;2023-02-15T05:06:06;126.16;132.98;
74419;PMS5003;62855;50.718;-2.460;2023-02-15T05:09:06;103.47;109.52;
74419;PMS5003;62855;50.718;-2.460;2023-02-15T05:10:06;69.89;70.40;
74419;PMS5003;62855;50.718;-2.460;2023-02-15T05:13:06;93.48;94.85;
74419;PMS5003;62855;50.718;-2.460;2023-02-15T05:14:06;108.91;98.76;
74419;PMS5003;62855;50.718;-2.460;2023-02-15T05:17:05;110.73;111.47;
74419;PMS5003;62855;50.718;-2.460;2023-02-15T05:20:06;108.00;109.52;
74419;PMS5003;62855;50.718;-2.460;2023-02-15T05:23:05;118.90;118.32;
74419;PMS5003;62855;50.718;-2.460;2023-02-15T05:26:06;116.17;116.36;
74419;PMS5003;62855;50.718;-2.460;2023-02-15T05:29:06;99.84;98.76;
74419;PMS5003;62855;50.718;-2.460;2023-02-15T05:32:05;101.65;101.69;
74419;PMS5003;62855;50.718;-2.460;2023-02-15T05:35:05;98.93;98.76;
74419;PMS5003;62855;50.718;-2.460;2023-02-15T05:36:06;88.95;90.94;
74419;PMS5003;62855;50.718;-2.460;2023-02-15T05:39:05;95.30;101.69;
74419;PMS5003;62855;50.718;-2.460;2023-02-15T05:42:06;96.21;100.72;
74419;PMS5003;62855;50.718;-2.460;2023-02-15T05:43:06;61.72;66.49;
74419;PMS5003;62855;50.718;-2.460;2023-02-15T05:44:06;83.50;89.96;
74419;PMS5003;62855;50.718;-2.460;2023-02-15T05:47:06;98.02;103.65;
74419;PMS5003;62855;50.718;-2.460;2023-02-15T05:48:06;57.18;53.78;
74419;PMS5003;62855;50.718;-2.460;2023-02-15T05:51:07;81.68;80.18;
74419;PMS5003;62855;50.718;-2.460;2023-02-15T05:54:06;81.68;83.11;
74419;PMS5003;62855;50.718;-2.460;2023-02-15T05:55:06;85.31;91.91;
74419;PMS5003;62855;50.718;-2.460;2023-02-15T05:58:06;88.04;94.85;
74419;PMS5003;62855;50.718;-2.460;2023-02-15T05:59:06;102.56;93.87;
74419;PMS5003;62855;50.718;-2.460;2023-02-15T06:00:06;72.61;78.23;
74419;PMS5003;62855;50.718;-2.460;2023-02-15T06:03:06;93.48;95.83;
74419;PMS5003;62855;50.718;-2.460;2023-02-15T06:04:06;80.78;87.03;
74419;PMS5003;62855;50.718;-2.460;2023-02-15T06:05:06;70.79;76.27;
74419;PMS5003;62855;50.718;-2.460;2023-02-15T06:08:06;101.65;101.69;
74419;PMS5003;62855;50.718;-2.460;2023-02-15T06:11:06;93.48;96.80;
74419;PMS5003;62855;50.718;-2.460;2023-02-15T06:12:06;87.13;71.38;
74419;PMS5003;62855;50.718;-2.460;2023-02-15T06:15:06;99.84;99.74;
74419;PMS5003;62855;50.718;-2.460;2023-02-15T06:18:06;102.56;100.72;
74419;PMS5003;62855;50.718;-2.460;2023-02-15T06:21:05;108.00;104.63;
74419;PMS5003;62855;50.718;-2.460;2023-02-15T06:24:05;102.56;101.69;
74419;PMS5003;62855;50.718;-2.460;2023-02-15T06:27:06;90.76;89.96;
74419;PMS5003;62855;50.718;-2.460;2023-02-15T06:30:06;97.11;96.80;
74419;PMS5003;62855;50.718;-2.460;2023-02-15T06:33:06;97.11;95.83;
74419;PMS5003;62855;50.718;-2.460;2023-02-15T06:36:05;99.84;97.78;
74419;PMS5003;62855;50.718;-2.460;2023-02-15T06:39:06;99.84;97.78;
74419;PMS5003;62855;50.718;-2.460;2023-02-15T06:40:07;69.89;75.29;
74419;PMS5003;62855;50.718;-2.460;2023-02-15T06:41:06;51.73;55.74;
74419;PMS5003;62855;50.718;-2.460;2023-02-15T06:42:06;108.00;116.36;
74419;PMS5003;62855;50.718;-2.460;2023-02-15T06:43:06;93.48;92.89;
74419;PMS5003;62855;50.718;-2.460;2023-02-15T06:44:06;87.13;93.87;
74419;PMS5003;62855;50.718;-2.460;2023-02-15T06:47:05;88.95;94.85;
74419;PMS5003;62855;50.718;-2.460;2023-02-15T06:50:06;90.76;95.83;
74419;PMS5003;62855;50.718;-2.460;2023-02-15T06:53:06;100.74;104.63;
74419;PMS5003;62855;50.718;-2.460;2023-02-15T06:54:06;61.72;66.49;
74419;PMS5003;62855;50.718;-2.460;2023-02-15T06:55:06;95.30;87.03;
74419;PMS5003;62855;50.718;-2.460;2023-02-15T06:58:05;78.96;80.18;
74419;PMS5003;62855;50.718;-2.460;2023-02-15T07:01:06;74.42;77.25;
74419;PMS5003;62855;50.718;-2.460;2023-02-15T07:04:06;80.78;82.14;
74419;PMS5003;62855;50.718;-2.460;2023-02-15T07:05:06;60.81;65.51;
74419;PMS5003;62855;50.718;-2.460;2023-02-15T07:08:06;70.79;76.27;
74419;PMS5003;62855;50.718;-2.460;2023-02-15T07:09:06;85.31;72.36;
74419;PMS5003;62855;50.718;-2.460;2023-02-15T07:12:06;75.33;74.31;
74419;PMS5003;62855;50.718;-2.460;2023-02-15T07:13:06;79.87;80.18;
74419;PMS5003;62855;50.718;-2.460;2023-02-15T07:14:06;73.52;76.27;
74419;PMS5003;62855;50.718;-2.460;2023-02-15T07:15:06;86.22;85.07;
74419;PMS5003;62855;50.718;-2.460;2023-02-15T07:18:06;87.13;86.05;
74419;PMS5003;62855;50.718;-2.460;2023-02-15T07:19:06;52.64;56.71;
74419;PMS5003;62855;50.718;-2.460;2023-02-15T07:22:06;68.07;73.34;
74419;PMS5003;62855;50.718;-2.460;2023-02-15T07:25:07;68.07;73.34;
74419;PMS5003;62855;50.718;-2.460;2023-02-15T07:28:05;77.15;80.18;
74419;PMS5003;62855;50.718;-2.460;2023-02-15T07:31:05;78.96;79.20;
74419;PMS5003;62855;50.718;-2.460;2023-02-15T07:34:06;73.52;72.36;
74419;PMS5003;62855;50.718;-2.460;2023-02-15T07:35:06;64.44;69.42;
74419;PMS5003;62855;50.718;-2.460;2023-02-15T07:38:05;78.05;83.11;
74419;PMS5003;62855;50.718;-2.460;2023-02-15T07:41:07;77.15;81.16;
74419;PMS5003;62855;50.718;-2.460;2023-02-15T07:44:05;88.04;88.00;
74419;PMS5003;62855;50.718;-2.460;2023-02-15T07:47:06;82.59;80.18;
74419;PMS5003;62855;50.718;-2.460;2023-02-15T07:48:06;56.27;60.62;
74419;PMS5003;62855;50.718;-2.460;2023-02-15T07:51:08;67.16;71.38;
74419;PMS5003;62855;50.718;-2.460;2023-02-15T07:54:06;68.07;71.38;
74419;PMS5003;62855;50.718;-2.460;2023-02-15T07:55:06;66.26;71.38;
74419;PMS5003;62855;50.718;-2.460;2023-02-15T07:58:06;77.15;81.16;
74419;PMS5003;62855;50.718;-2.460;2023-02-15T07:59:06;65.35;70.40;
74419;PMS5003;62855;50.718;-2.460;2023-02-15T08:00:06;68.07;67.47;
74419;PMS5003;62855;50.718;-2.460;2023-02-15T08:03:05;68.98;71.38;
74419;PMS5003;62855;50.718;-2.460;2023-02-15T08:06:06;71.70;75.29;
74419;PMS5003;62855;50.718;-2.460;2023-02-15T08:07:06;46.29;42.05;
74419;PMS5003;62855;50.718;-2.460;2023-02-15T08:10:06;65.35;62.58;
74419;PMS5003;62855;50.718;-2.460;2023-02-15T08:13:06;67.16;64.54;
74419;PMS5003;62855;50.718;-2.460;2023-02-15T08:14:07;43.56;46.94;
74419;PMS5003;62855;50.718;-2.460;2023-02-15T08:17:05;49.01;50.85;
74419;PMS5003;62855;50.718;-2.460;2023-02-15T08:20:06;55.36;56.71;
74419;PMS5003;62855;50.718;-2.460;2023-02-15T08:23:06;61.72;60.62;
74419;PMS5003;62855;50.718;-2.460;2023-02-15T08:24:07;62.62;60.62;
74419;PMS5003;62855;50.718;-2.460;2023-02-15T08:27:06;63.53;65.51;
74419;PMS5003;62855;50.718;-2.460;2023-02-15T08:30:06;68.07;67.47;
74419;PMS5003;62855;50.718;-2.460;2023-02-15T08:33:05;69.89;70.40;
74419;PMS5003;62855;50.718;-2.460;2023-02-15T08:36:06;71.70;70.40;
74419;PMS5003;62855;50.718;-2.460;2023-02-15T08:39:05;68.07;65.51;
74419;PMS5003;62855;50.718;-2.460;2023-02-15T08:42:06;65.35;64.54;
74419;PMS5003;62855;50.718;-2.460;2023-02-15T08:45:06;65.35;63.56;
74419;PMS5003;62855;50.718;-2.460;2023-02-15T08:48:05;67.16;63.56;
74419;PMS5003;62855;50.718;-2.460;2023-02-15T08:51:06;64.44;61.60;
74419;PMS5003;62855;50.718;-2.460;2023-02-15T08:52:06;40.84;44.00;
74419;PMS5003;62855;50.718;-2.460;2023-02-15T08:53:06;59.90;64.54;
74419;PMS5003;62855;50.718;-2.460;2023-02-15T08:54:10;59.90;45.96;
74419;PMS5003;62855;50.718;-2.460;2023-02-15T08:57:05;63.53;56.71;
74419;PMS5003;62855;50.718;-2.460;2023-02-15T09:00:06;67.16;63.56;
74419;PMS5003;62855;50.718;-2.460;2023-02-15T09:03:06;70.79;66.49;
74419;PMS5003;62855;50.718;-2.460;2023-02-15T09:04:06;46.29;49.87;
74419;PMS5003;62855;50.718;-2.460;2023-02-15T09:05:06;44.47;47.91;
74419;PMS5003;62855;50.718;-2.460;2023-02-15T09:08:06;61.72;59.65;
74419;PMS5003;62855;50.718;-2.460;2023-02-15T09:11:07;62.62;61.60;
74419;PMS5003;62855;50.718;-2.460;2023-02-15T09:14:06;63.53;62.58;
74419;PMS5003;62855;50.718;-2.460;2023-02-15T09:17:06;63.53;64.54;
74419;PMS5003;62855;50.718;-2.460;2023-02-15T09:20:06;56.27;55.74;
74419;PMS5003;62855;50.718;-2.460;2023-02-15T09:23:05;59.90;57.69;
74419;PMS5003;62855;50.718;-2.460;2023-02-15T09:26:06;57.18;54.76;
74419;PMS5003;62855;50.718;-2.460;2023-02-15T09:27:06;43.56;41.07;
74419;PMS5003;62855;50.718;-2.460;2023-02-15T09:28:06;39.93;43.02;
74419;PMS5003;62855;50.718;-2.460;2023-02-15T09:29:06;42.66;38.13;
74419;PMS5003;62855;50.718;-2.460;2023-02-15T09:32:05;48.10;48.89;
74419;PMS5003;62855;50.718;-2.460;2023-02-15T09:35:06;45.38;45.96;
74419;PMS5003;62855;50.718;-2.460;2023-02-15T09:38:06;46.29;46.94;
74419;PMS5003;62855;50.718;-2.460;2023-02-15T09:39:07;49.92;53.78;
74419;PMS5003;62855;50.718;-2.460;2023-02-15T09:42:11;41.75;44.98;
74419;PMS5003;62855;50.718;-2.460;2023-02-15T09:45:09;45.38;48.89;
74419;PMS5003;62855;50.718;-2.460;2023-02-15T09:48:10;48.10;51.82;
74419;PMS5003;62855;50.718;-2.460;2023-02-15T09:51:12;44.47;47.91;
74419;PMS5003;62855;50.718;-2.460;2023-02-15T09:54:09;48.10;48.89;
74419;PMS5003;62855;50.718;-2.460;2023-02-15T09:57:07;48.10;48.89;
74419;PMS5003;62855;50.718;-2.460;2023-02-15T10:00:07;48.10;49.87;
74419;PMS5003;62855;50.718;-2.460;2023-02-15T10:03:10;50.83;50.85;
74419;PMS5003;62855;50.718;-2.460;2023-02-15T10:06:11;49.92;50.85;
74419;PMS5003;62855;50.718;-2.460;2023-02-15T10:09:09;49.92;50.85;
74419;PMS5003;62855;50.718;-2.460;2023-02-15T10:12:09;49.92;51.82;
74419;PMS5003;62855;50.718;-2.460;2023-02-15T10:15:12;50.83;52.80;
74419;PMS5003;62855;50.718;-2.460;2023-02-15T10:16:10;50.83;49.87;
74419;PMS5003;62855;50.718;-2.460;2023-02-15T10:19:08;56.27;50.85;
74419;PMS5003;62855;50.718;-2.460;2023-02-15T10:22:09;51.73;49.87;
74419;PMS5003;62855;50.718;-2.460;2023-02-15T10:25:13;55.36;52.80;
74419;PMS5003;62855;50.718;-2.460;2023-02-15T10:26:08;41.75;44.98;
74419;PMS5003;62855;50.718;-2.460;2023-02-15T10:29:07;54.46;50.85;
74419;PMS5003;62855;50.718;-2.460;2023-02-15T10:32:09;48.10;46.94;
74419;PMS5003;62855;50.718;-2.460;2023-02-15T10:35:07;49.01;47.91;
74419;PMS5003;62855;50.718;-2.460;2023-02-15T10:38:08;48.10;45.96;
74419;PMS5003;62855;50.718;-2.460;2023-02-15T10:41:09;41.75;43.02;
74419;PMS5003;62855;50.718;-2.460;2023-02-15T10:44:11;49.01;48.89;
74419;PMS5003;62855;50.718;-2.460;2023-02-15T10:47:11;50.83;51.82;
74419;PMS5003;62855;50.718;-2.460;2023-02-15T10:48:11;55.36;53.78;
74419;PMS5003;62855;50.718;-2.460;2023-02-15T10:52:09;39.93;43.02;
74419;PMS5003;62855;50.718;-2.460;2023-02-15T10:55:07;40.84;42.05;
74419;PMS5003;62855;50.718;-2.460;2023-02-15T10:58:08;42.66;44.00;
74419;PMS5003;62855;50.718;-2.460;2023-02-15T11:01:09;46.29;47.91;
74419;PMS5003;62855;50.718;-2.460;2023-02-15T11:04:09;44.47;45.96;
74419;PMS5003;62855;50.718;-2.460;2023-02-15T11:07:06;44.47;46.94;
74419;PMS5003;62855;50.718;-2.460;2023-02-15T11:10:10;45.38;46.94;
74419;PMS5003;62855;50.718;-2.460;2023-02-15T11:13:08;43.56;45.96;
74419;PMS5003;62855;50.718;-2.460;2023-02-15T11:16:07;42.66;44.98;
74419;PMS5003;62855;50.718;-2.460;2023-02-15T11:19:06;42.66;44.98;
74419;PMS5003;62855;50.718;-2.460;2023-02-15T11:22:06;44.47;46.94;
74419;PMS5003;62855;50.718;-2.460;2023-02-15T11:25:13;44.47;46.94;
74419;PMS5003;62855;50.718;-2.460;2023-02-15T11:28:10;44.47;45.96;
74419;PMS5003;62855;50.718;-2.460;2023-02-15T11:31:11;48.10;48.89;
74419;PMS5003;62855;50.718;-2.460;2023-02-15T11:34:10;54.46;52.80;
74419;PMS5003;62855;50.718;-2.460;2023-02-15T11:37:07;53.55;49.87;
74419;PMS5003;62855;50.718;-2.460;2023-02-15T11:43:10;53.55;46.94;
74419;PMS5003;62855;50.718;-2.460;2023-02-15T11:46:06;49.92;44.98;
74419;PMS5003;62855;50.718;-2.460;2023-02-15T11:49:09;49.01;44.00;
74419;PMS5003;62855;50.718;-2.460;2023-02-15T11:52:06;47.20;42.05;
74419;PMS5003;62855;50.718;-2.460;2023-02-15T11:55:09;49.92;43.02;
74419;PMS5003;62855;50.718;-2.460;2023-02-15T11:58:09;47.20;43.02;
74419;PMS5003;62855;50.718;-2.460;2023-02-15T12:01:08;47.20;42.05;
74419;PMS5003;62855;50.718;-2.460;2023-02-15T12:04:06;47.20;41.07;
74419;PMS5003;62855;50.718;-2.460;2023-02-15T12:07:09;46.29;42.05;
74419;PMS5003;62855;50.718;-2.460;2023-02-15T12:10:13;44.47;41.07;
74419;PMS5003;62855;50.718;-2.460;2023-02-15T12:13:10;42.66;41.07;
74419;PMS5003;62855;50.718;-2.460;2023-02-15T12:16:06;43.56;42.05;
74419;PMS5003;62855;50.718;-2.460;2023-02-15T12:19:10;43.56;42.05;
74419;PMS5003;62855;50.718;-2.460;2023-02-15T12:22:06;42.66;43.02;
74419;PMS5003;62855;50.718;-2.460;2023-02-15T12:31:07;50.83;49.87;
74419;PMS5003;62855;50.718;-2.460;2023-02-15T12:34:09;55.36;51.82;
74419;PMS5003;62855;50.718;-2.460;2023-02-15T12:37:08;57.18;51.82;
74419;PMS5003;62855;50.718;-2.460;2023-02-15T12:43:08;57.18;50.85;
74419;PMS5003;62855;50.718;-2.460;2023-02-15T12:46:19;55.36;47.91;
74419;PMS5003;62855;50.718;-2.460;2023-02-15T12:49:16;55.36;48.89;
74419;PMS5003;62855;50.718;-2.460;2023-02-15T12:52:22;55.36;50.85;
74419;PMS5003;62855;50.718;-2.460;2023-02-15T12:55:11;53.55;49.87;
74419;PMS5003;62855;50.718;-2.460;2023-02-15T12:58:06;49.92;46.94;
74419;PMS5003;62855;50.718;-2.460;2023-02-15T13:01:10;49.01;49.87;
74419;PMS5003;62855;50.718;-2.460;2023-02-15T13:04:12;49.92;50.85;
74419;PMS5003;62855;50.718;-2.460;2023-02-15T13:07:05;49.01;50.85;
74419;PMS5003;62855;50.718;-2.460;2023-02-15T13:10:17;50.83;52.80;
74419;PMS5003;62855;50.718;-2.460;2023-02-15T13:13:09;51.73;51.82;
74419;PMS5003;62855;50.718;-2.460;2023-02-15T13:16:07;49.92;47.91;
74419;PMS5003;62855;50.718;-2.460;2023-02-15T13:19:06;50.83;45.96;
74419;PMS5003;62855;50.718;-2.460;2023-02-15T13:22:06;49.92;43.02;
74419;PMS5003;62855;50.718;-2.460;2023-02-15T13:25:09;49.92;44.00;
74419;PMS5003;62855;50.718;-2.460;2023-02-15T13:28:06;51.73;45.96;
74419;PMS5003;62855;50.718;-2.460;2023-02-15T13:31:08;52.64;47.91;
74419;PMS5003;62855;50.718;-2.460;2023-02-15T13:34:08;53.55;47.91;
74419;PMS5003;62855;50.718;-2.460;2023-02-15T13:37:08;51.73;47.91;
74419;PMS5003;62855;50.718;-2.460;2023-02-15T13:40:07;56.27;52.80;
74419;PMS5003;62855;50.718;-2.460;2023-02-15T13:43:11;56.27;51.82;
74419;PMS5003;62855;50.718;-2.460;2023-02-15T13:46:08;53.55;49.87;
74419;PMS5003;62855;50.718;-2.460;2023-02-15T13:49:09;49.01;46.94;
74419;PMS5003;62855;50.718;-2.460;2023-02-15T13:52:08;46.29;46.94;
74419;PMS5003;62855;50.718;-2.460;2023-02-15T13:55:11;45.38;45.96;
74419;PMS5003;62855;50.718;-2.460;2023-02-15T13:58:14;45.38;45.96;
74419;PMS5003;62855;50.718;-2.460;2023-02-15T14:01:08;48.10;47.91;
74419;PMS5003;62855;50.718;-2.460;2023-02-15T14:07:10;49.92;46.94;
74419;PMS5003;62855;50.718;-2.460;2023-02-15T14:10:12;49.92;47.91;
74419;PMS5003;62855;50.718;-2.460;2023-02-15T14:16:08;49.92;48.89;
74419;PMS5003;62855;50.718;-2.460;2023-02-15T14:19:10;50.83;49.87;
74419;PMS5003;62855;50.718;-2.460;2023-02-15T14:22:07;50.83;49.87;
74419;PMS5003;62855;50.718;-2.460;2023-02-15T14:28:07;51.73;48.89;
74419;PMS5003;62855;50.718;-2.460;2023-02-15T14:31:06;49.92;47.91;
74419;PMS5003;62855;50.718;-2.460;2023-02-15T14:34:08;49.01;47.91;
74419;PMS5003;62855;50.718;-2.460;2023-02-15T14:37:05;48.10;47.91;
74419;PMS5003;62855;50.718;-2.460;2023-02-15T14:40:07;49.01;47.91;
74419;PMS5003;62855;50.718;-2.460;2023-02-15T14:43:07;50.83;48.89;
74419;PMS5003;62855;50.718;-2.460;2023-02-15T14:46:07;51.73;49.87;
74419;PMS5003;62855;50.718;-2.460;2023-02-15T14:49:08;50.83;48.89;
74419;PMS5003;62855;50.718;-2.460;2023-02-15T14:52:07;51.73;49.87;
74419;PMS5003;62855;50.718;-2.460;2023-02-15T14:54:06;24.51;26.40;
74419;PMS5003;62855;50.718;-2.460;2023-02-15T14:55:05;29.04;23.47;
74419;PMS5003;62855;50.718;-2.460;2023-02-15T14:58:09;30.86;29.33;
74419;PMS5003;62855;50.718;-2.460;2023-02-15T15:01:05;26.32;25.42;
74419;PMS5003;62855;50.718;-2.460;2023-02-15T15:04:06;29.04;28.36;
74419;PMS5003;62855;50.718;-2.460;2023-02-15T15:07:12;26.32;25.42;
74419;PMS5003;62855;50.718;-2.460;2023-02-15T15:10:07;23.60;23.47;
74419;PMS5003;62855;50.718;-2.460;2023-02-15T15:14:05;28.14;25.42;
74419;PMS5003;62855;50.718;-2.460;2023-02-15T15:17:06;29.04;28.36;
74419;PMS5003;62855;50.718;-2.460;2023-02-15T15:20:10;29.95;28.36;
74419;PMS5003;62855;50.718;-2.460;2023-02-15T15:29:06;28.14;26.40;
74419;PMS5003;62855;50.718;-2.460;2023-02-15T15:32:06;30.86;28.36;
74419;PMS5003;62855;50.718;-2.460;2023-02-15T15:35:11;30.86;28.36;
74419;PMS5003;62855;50.718;-2.460;2023-02-15T15:38:10;30.86;28.36;
74419;PMS5003;62855;50.718;-2.460;2023-02-15T15:41:10;30.86;29.33;
74419;PMS5003;62855;50.718;-2.460;2023-02-15T15:47:08;29.95;30.31;
74419;PMS5003;62855;50.718;-2.460;2023-02-15T15:50:11;29.95;30.31;
74419;PMS5003;62855;50.718;-2.460;2023-02-15T15:53:06;29.95;29.33;
74419;PMS5003;62855;50.718;-2.460;2023-02-15T15:56:06;29.04;30.31;
74419;PMS5003;62855;50.718;-2.460;2023-02-15T15:59:07;27.23;28.36;
74419;PMS5003;62855;50.718;-2.460;2023-02-15T16:02:07;27.23;27.38;
74419;PMS5003;62855;50.718;-2.460;2023-02-15T16:05:06;26.32;27.38;